sensor_id;sensor_type;location;lat;lon;timestamp;P1;durP1;ratioP1;P2;durP2;ratioP2
51824;SDS011;37879;52.986;6.282;2024-02-16T00:01:58;7.25;;;2.30;;
51824;SDS011;37879;52.986;6.282;2024-02-16T00:04:24;4.75;;;2.58;;
51824;SDS011;37879;52.986;6.282;2024-02-16T00:06:50;4.20;;;2.20;;
51824;SDS011;37879;52.986;6.282;2024-02-16T00:09:16;3.50;;;2.00;;
51824;SDS011;37879;52.986;6.282;2024-02-16T00:11:42;6.32;;;2.55;;
51824;SDS011;37879;52.986;6.282;2024-02-16T00:14:08;5.43;;;2.30;;
51824;SDS011;37879;52.986;6.282;2024-02-16T00:16:34;5.53;;;2.22;;
51824;SDS011;37879;52.986;6.282;2024-02-16T00:19:00;5.13;;;2.50;;
51824;SDS011;37879;52.986;6.282;2024-02-16T00:21:26;5.45;;;2.38;;
51824;SDS011;37879;52.986;6.282;2024-02-16T00:23:52;4.32;;;2.40;;
51824;SDS011;37879;52.986;6.282;2024-02-16T00:26:18;4.65;;;1.95;;
51824;SDS011;37879;52.986;6.282;2024-02-16T00:28:45;3.42;;;1.92;;
51824;SDS011;37879;52.986;6.282;2024-02-16T00:31:11;4.93;;;1.83;;
51824;SDS011;37879;52.986;6.282;2024-02-16T00:33:37;5.25;;;2.10;;
51824;SDS011;37879;52.986;6.282;2024-02-16T00:36:02;6.35;;;3.28;;
51824;SDS011;37879;52.986;6.282;2024-02-16T00:38:28;5.85;;;2.15;;
51824;SDS011;37879;52.986;6.282;2024-02-16T00:40:54;6.43;;;2.15;;
51824;SDS011;37879;52.986;6.282;2024-02-16T00:43:20;4.55;;;2.03;;
51824;SDS011;37879;52.986;6.282;2024-02-16T00:45:45;4.38;;;2.22;;
51824;SDS011;37879;52.986;6.282;2024-02-16T00:48:12;4.30;;;2.17;;
51824;SDS011;37879;52.986;6.282;2024-02-16T00:50:37;4.20;;;1.92;;
51824;SDS011;37879;52.986;6.282;2024-02-16T00:53:03;6.53;;;2.85;;
51824;SDS011;37879;52.986;6.282;2024-02-16T00:55:29;3.90;;;2.03;;
51824;SDS011;37879;52.986;6.282;2024-02-16T00:57:55;7.57;;;2.58;;
51824;SDS011;37879;52.986;6.282;2024-02-16T01:00:21;6.00;;;2.25;;
51824;SDS011;37879;52.986;6.282;2024-02-16T01:02:48;4.53;;;2.55;;
51824;SDS011;37879;52.986;6.282;2024-02-16T01:05:14;4.57;;;2.40;;
51824;SDS011;37879;52.986;6.282;2024-02-16T01:07:43;3.95;;;2.38;;
51824;SDS011;37879;52.986;6.282;2024-02-16T01:10:09;4.38;;;2.50;;
51824;SDS011;37879;52.986;6.282;2024-02-16T01:12:35;5.60;;;2.20;;
51824;SDS011;37879;52.986;6.282;2024-02-16T01:15:01;3.67;;;2.10;;
51824;SDS011;37879;52.986;6.282;2024-02-16T01:17:26;3.67;;;2.20;;
51824;SDS011;37879;52.986;6.282;2024-02-16T01:19:52;6.28;;;2.40;;
51824;SDS011;37879;52.986;6.282;2024-02-16T01:22:18;4.65;;;2.17;;
51824;SDS011;37879;52.986;6.282;2024-02-16T01:24:43;3.25;;;1.73;;
51824;SDS011;37879;52.986;6.282;2024-02-16T01:27:09;3.95;;;2.20;;
51824;SDS011;37879;52.986;6.282;2024-02-16T01:29:36;5.82;;;2.15;;
51824;SDS011;37879;52.986;6.282;2024-02-16T01:32:02;3.63;;;2.53;;
51824;SDS011;37879;52.986;6.282;2024-02-16T01:34:28;3.95;;;2.35;;
51824;SDS011;37879;52.986;6.282;2024-02-16T01:36:55;5.43;;;2.35;;
51824;SDS011;37879;52.986;6.282;2024-02-16T01:39:21;4.13;;;1.98;;
51824;SDS011;37879;52.986;6.282;2024-02-16T01:41:47;3.70;;;2.30;;
51824;SDS011;37879;52.986;6.282;2024-02-16T01:44:13;4.93;;;2.40;;
51824;SDS011;37879;52.986;6.282;2024-02-16T01:46:41;4.20;;;2.40;;
51824;SDS011;37879;52.986;6.282;2024-02-16T01:49:07;5.35;;;2.45;;
51824;SDS011;37879;52.986;6.282;2024-02-16T01:51:34;4.10;;;2.20;;
51824;SDS011;37879;52.986;6.282;2024-02-16T01:54:01;3.72;;;2.38;;
51824;SDS011;37879;52.986;6.282;2024-02-16T01:56:27;5.80;;;2.35;;
51824;SDS011;37879;52.986;6.282;2024-02-16T01:58:53;4.53;;;2.35;;
51824;SDS011;37879;52.986;6.282;2024-02-16T02:01:19;4.38;;;2.30;;
51824;SDS011;37879;52.986;6.282;2024-02-16T02:03:45;5.13;;;2.40;;
51824;SDS011;37879;52.986;6.282;2024-02-16T02:06:10;4.97;;;2.13;;
51824;SDS011;37879;52.986;6.282;2024-02-16T02:08:36;5.80;;;2.97;;
51824;SDS011;37879;52.986;6.282;2024-02-16T02:11:02;6.50;;;2.55;;
51824;SDS011;37879;52.986;6.282;2024-02-16T02:13:27;5.35;;;3.08;;
51824;SDS011;37879;52.986;6.282;2024-02-16T02:15:54;5.82;;;2.47;;
51824;SDS011;37879;52.986;6.282;2024-02-16T02:18:21;4.97;;;2.65;;
51824;SDS011;37879;52.986;6.282;2024-02-16T02:20:46;3.63;;;2.00;;
51824;SDS011;37879;52.986;6.282;2024-02-16T02:23:12;4.50;;;2.30;;
51824;SDS011;37879;52.986;6.282;2024-02-16T02:25:38;4.85;;;2.25;;
51824;SDS011;37879;52.986;6.282;2024-02-16T02:28:05;5.45;;;2.13;;
51824;SDS011;37879;52.986;6.282;2024-02-16T02:30:31;5.07;;;2.28;;
51824;SDS011;37879;52.986;6.282;2024-02-16T02:32:57;3.58;;;2.30;;
51824;SDS011;37879;52.986;6.282;2024-02-16T02:35:22;5.53;;;2.50;;
51824;SDS011;37879;52.986;6.282;2024-02-16T02:37:48;5.15;;;2.13;;
51824;SDS011;37879;52.986;6.282;2024-02-16T02:40:14;5.88;;;2.13;;
51824;SDS011;37879;52.986;6.282;2024-02-16T02:42:39;3.28;;;2.20;;
51824;SDS011;37879;52.986;6.282;2024-02-16T02:45:05;4.45;;;2.20;;
51824;SDS011;37879;52.986;6.282;2024-02-16T02:47:31;5.63;;;3.05;;
51824;SDS011;37879;52.986;6.282;2024-02-16T02:49:57;4.63;;;2.50;;
51824;SDS011;37879;52.986;6.282;2024-02-16T02:52:23;5.78;;;2.30;;
51824;SDS011;37879;52.986;6.282;2024-02-16T02:54:48;4.63;;;2.15;;
51824;SDS011;37879;52.986;6.282;2024-02-16T02:57:14;8.18;;;2.92;;
51824;SDS011;37879;52.986;6.282;2024-02-16T02:59:40;5.10;;;1.98;;
51824;SDS011;37879;52.986;6.282;2024-02-16T03:02:05;4.20;;;2.17;;
51824;SDS011;37879;52.986;6.282;2024-02-16T03:04:31;4.60;;;2.20;;
51824;SDS011;37879;52.986;6.282;2024-02-16T03:06:57;3.17;;;2.08;;
51824;SDS011;37879;52.986;6.282;2024-02-16T03:09:22;5.65;;;1.90;;
51824;SDS011;37879;52.986;6.282;2024-02-16T03:11:48;4.72;;;2.08;;
51824;SDS011;37879;52.986;6.282;2024-02-16T03:14:15;4.00;;;2.00;;
51824;SDS011;37879;52.986;6.282;2024-02-16T03:16:44;3.60;;;1.98;;
51824;SDS011;37879;52.986;6.282;2024-02-16T03:19:10;4.82;;;2.70;;
51824;SDS011;37879;52.986;6.282;2024-02-16T03:21:35;4.15;;;2.20;;
51824;SDS011;37879;52.986;6.282;2024-02-16T03:24:01;3.58;;;2.33;;
51824;SDS011;37879;52.986;6.282;2024-02-16T03:26:27;5.05;;;2.20;;
51824;SDS011;37879;52.986;6.282;2024-02-16T03:28:53;9.63;;;1.95;;
51824;SDS011;37879;52.986;6.282;2024-02-16T03:31:19;6.75;;;2.10;;
51824;SDS011;37879;52.986;6.282;2024-02-16T03:33:46;4.22;;;1.80;;
51824;SDS011;37879;52.986;6.282;2024-02-16T03:36:13;3.33;;;1.95;;
51824;SDS011;37879;52.986;6.282;2024-02-16T03:38:43;3.53;;;1.80;;
51824;SDS011;37879;52.986;6.282;2024-02-16T03:41:42;4.43;;;2.00;;
51824;SDS011;37879;52.986;6.282;2024-02-16T03:44:01;3.33;;;1.73;;
51824;SDS011;37879;52.986;6.282;2024-02-16T03:46:26;4.20;;;2.25;;
51824;SDS011;37879;52.986;6.282;2024-02-16T03:48:52;3.50;;;1.58;;
51824;SDS011;37879;52.986;6.282;2024-02-16T03:51:18;2.85;;;1.75;;
51824;SDS011;37879;52.986;6.282;2024-02-16T03:53:44;3.83;;;1.98;;
51824;SDS011;37879;52.986;6.282;2024-02-16T03:56:18;3.30;;;1.58;;
51824;SDS011;37879;52.986;6.282;2024-02-16T03:58:44;2.65;;;1.63;;
51824;SDS011;37879;52.986;6.282;2024-02-16T04:01:10;3.65;;;1.80;;
51824;SDS011;37879;52.986;6.282;2024-02-16T04:03:35;2.75;;;1.63;;
51824;SDS011;37879;52.986;6.282;2024-02-16T04:06:01;3.05;;;2.08;;
51824;SDS011;37879;52.986;6.282;2024-02-16T04:08:29;3.35;;;1.70;;
51824;SDS011;37879;52.986;6.282;2024-02-16T04:10:55;4.53;;;2.10;;
51824;SDS011;37879;52.986;6.282;2024-02-16T04:13:20;3.53;;;2.00;;
51824;SDS011;37879;52.986;6.282;2024-02-16T04:15:46;3.97;;;2.13;;
51824;SDS011;37879;52.986;6.282;2024-02-16T04:18:12;5.63;;;2.35;;
51824;SDS011;37879;52.986;6.282;2024-02-16T04:20:37;5.25;;;2.00;;
51824;SDS011;37879;52.986;6.282;2024-02-16T04:23:06;2.83;;;1.80;;
51824;SDS011;37879;52.986;6.282;2024-02-16T04:25:31;2.20;;;1.63;;
51824;SDS011;37879;52.986;6.282;2024-02-16T04:27:57;4.63;;;1.90;;
51824;SDS011;37879;52.986;6.282;2024-02-16T04:30:23;3.78;;;2.03;;
51824;SDS011;37879;52.986;6.282;2024-02-16T04:32:48;4.45;;;1.75;;
51824;SDS011;37879;52.986;6.282;2024-02-16T04:35:14;2.78;;;1.58;;
51824;SDS011;37879;52.986;6.282;2024-02-16T04:37:40;4.22;;;1.90;;
51824;SDS011;37879;52.986;6.282;2024-02-16T04:40:06;4.40;;;2.25;;
51824;SDS011;37879;52.986;6.282;2024-02-16T04:42:33;5.18;;;1.90;;
51824;SDS011;37879;52.986;6.282;2024-02-16T04:44:58;4.50;;;1.55;;
51824;SDS011;37879;52.986;6.282;2024-02-16T04:47:27;4.63;;;2.60;;
51824;SDS011;37879;52.986;6.282;2024-02-16T04:49:53;3.63;;;1.80;;
51824;SDS011;37879;52.986;6.282;2024-02-16T04:52:18;4.70;;;2.58;;
51824;SDS011;37879;52.986;6.282;2024-02-16T04:54:44;4.40;;;2.03;;
51824;SDS011;37879;52.986;6.282;2024-02-16T04:57:10;4.85;;;2.08;;
51824;SDS011;37879;52.986;6.282;2024-02-16T04:59:35;5.05;;;2.00;;
51824;SDS011;37879;52.986;6.282;2024-02-16T05:02:01;4.20;;;2.20;;
51824;SDS011;37879;52.986;6.282;2024-02-16T05:04:29;2.80;;;1.77;;
51824;SDS011;37879;52.986;6.282;2024-02-16T05:06:54;4.30;;;1.98;;
51824;SDS011;37879;52.986;6.282;2024-02-16T05:09:22;3.63;;;1.70;;
51824;SDS011;37879;52.986;6.282;2024-02-16T05:11:50;4.85;;;2.28;;
51824;SDS011;37879;52.986;6.282;2024-02-16T05:14:16;5.15;;;2.20;;
51824;SDS011;37879;52.986;6.282;2024-02-16T05:16:45;3.38;;;2.30;;
51824;SDS011;37879;52.986;6.282;2024-02-16T05:19:11;3.17;;;1.80;;
51824;SDS011;37879;52.986;6.282;2024-02-16T05:21:37;3.67;;;2.03;;
51824;SDS011;37879;52.986;6.282;2024-02-16T05:24:02;4.05;;;1.83;;
51824;SDS011;37879;52.986;6.282;2024-02-16T05:26:28;3.55;;;2.22;;
51824;SDS011;37879;52.986;6.282;2024-02-16T05:28:54;5.57;;;2.28;;
51824;SDS011;37879;52.986;6.282;2024-02-16T05:31:20;5.72;;;2.10;;
51824;SDS011;37879;52.986;6.282;2024-02-16T05:33:49;3.05;;;1.83;;
51824;SDS011;37879;52.986;6.282;2024-02-16T05:36:19;4.80;;;2.05;;
51824;SDS011;37879;52.986;6.282;2024-02-16T05:38:48;5.03;;;1.70;;
51824;SDS011;37879;52.986;6.282;2024-02-16T05:41:17;4.00;;;1.85;;
51824;SDS011;37879;52.986;6.282;2024-02-16T05:43:43;5.18;;;2.13;;
51824;SDS011;37879;52.986;6.282;2024-02-16T05:46:13;4.80;;;2.25;;
51824;SDS011;37879;52.986;6.282;2024-02-16T05:48:39;3.47;;;2.15;;
51824;SDS011;37879;52.986;6.282;2024-02-16T05:51:05;3.20;;;1.80;;
51824;SDS011;37879;52.986;6.282;2024-02-16T05:53:35;5.13;;;2.38;;
51824;SDS011;37879;52.986;6.282;2024-02-16T05:56:01;4.53;;;2.00;;
51824;SDS011;37879;52.986;6.282;2024-02-16T05:58:27;4.47;;;1.67;;
51824;SDS011;37879;52.986;6.282;2024-02-16T06:00:54;4.95;;;2.47;;
51824;SDS011;37879;52.986;6.282;2024-02-16T06:03:20;3.22;;;1.95;;
51824;SDS011;37879;52.986;6.282;2024-02-16T06:05:46;6.00;;;2.40;;
51824;SDS011;37879;52.986;6.282;2024-02-16T06:08:12;4.70;;;2.15;;
51824;SDS011;37879;52.986;6.282;2024-02-16T06:10:38;3.25;;;2.05;;
51824;SDS011;37879;52.986;6.282;2024-02-16T06:13:05;3.45;;;1.80;;
51824;SDS011;37879;52.986;6.282;2024-02-16T06:15:31;5.00;;;2.25;;
51824;SDS011;37879;52.986;6.282;2024-02-16T06:17:59;4.72;;;2.00;;
51824;SDS011;37879;52.986;6.282;2024-02-16T06:20:25;6.78;;;2.28;;
51824;SDS011;37879;52.986;6.282;2024-02-16T06:22:51;3.33;;;1.80;;
51824;SDS011;37879;52.986;6.282;2024-02-16T06:25:17;4.13;;;1.83;;
51824;SDS011;37879;52.986;6.282;2024-02-16T06:27:43;3.30;;;1.75;;
51824;SDS011;37879;52.986;6.282;2024-02-16T06:30:09;4.22;;;2.35;;
51824;SDS011;37879;52.986;6.282;2024-02-16T06:32:38;3.03;;;1.70;;
51824;SDS011;37879;52.986;6.282;2024-02-16T06:35:07;5.78;;;1.70;;
51824;SDS011;37879;52.986;6.282;2024-02-16T06:37:33;3.95;;;1.58;;
51824;SDS011;37879;52.986;6.282;2024-02-16T06:39:59;5.40;;;2.47;;
51824;SDS011;37879;52.986;6.282;2024-02-16T06:42:25;7.18;;;2.25;;
51824;SDS011;37879;52.986;6.282;2024-02-16T06:44:51;3.95;;;1.70;;
51824;SDS011;37879;52.986;6.282;2024-02-16T06:47:17;2.63;;;1.95;;
51824;SDS011;37879;52.986;6.282;2024-02-16T06:49:43;3.92;;;1.75;;
51824;SDS011;37879;52.986;6.282;2024-02-16T06:52:11;5.32;;;2.20;;
51824;SDS011;37879;52.986;6.282;2024-02-16T06:54:37;3.30;;;2.03;;
51824;SDS011;37879;52.986;6.282;2024-02-16T06:57:03;5.20;;;1.70;;
51824;SDS011;37879;52.986;6.282;2024-02-16T06:59:29;4.68;;;1.95;;
51824;SDS011;37879;52.986;6.282;2024-02-16T07:01:54;5.20;;;1.70;;
51824;SDS011;37879;52.986;6.282;2024-02-16T07:04:20;8.05;;;2.25;;
51824;SDS011;37879;52.986;6.282;2024-02-16T07:06:45;3.53;;;1.65;;
51824;SDS011;37879;52.986;6.282;2024-02-16T07:09:11;4.53;;;2.15;;
51824;SDS011;37879;52.986;6.282;2024-02-16T07:11:40;5.55;;;2.58;;
51824;SDS011;37879;52.986;6.282;2024-02-16T07:14:06;4.45;;;1.77;;
51824;SDS011;37879;52.986;6.282;2024-02-16T07:16:33;5.35;;;2.67;;
51824;SDS011;37879;52.986;6.282;2024-02-16T07:18:59;3.40;;;2.10;;
51824;SDS011;37879;52.986;6.282;2024-02-16T07:21:25;4.30;;;2.15;;
51824;SDS011;37879;52.986;6.282;2024-02-16T07:23:52;4.10;;;1.92;;
51824;SDS011;37879;52.986;6.282;2024-02-16T07:26:18;2.90;;;1.77;;
51824;SDS011;37879;52.986;6.282;2024-02-16T07:28:43;3.45;;;2.28;;
51824;SDS011;37879;52.986;6.282;2024-02-16T07:31:09;4.03;;;2.10;;
51824;SDS011;37879;52.986;6.282;2024-02-16T07:33:36;3.70;;;1.95;;
51824;SDS011;37879;52.986;6.282;2024-02-16T07:36:01;3.60;;;1.98;;
51824;SDS011;37879;52.986;6.282;2024-02-16T07:38:28;3.95;;;2.15;;
51824;SDS011;37879;52.986;6.282;2024-02-16T07:40:53;4.57;;;2.63;;
51824;SDS011;37879;52.986;6.282;2024-02-16T07:43:20;3.40;;;1.98;;
51824;SDS011;37879;52.986;6.282;2024-02-16T07:45:46;3.85;;;2.15;;
51824;SDS011;37879;52.986;6.282;2024-02-16T07:48:13;6.22;;;2.38;;
51824;SDS011;37879;52.986;6.282;2024-02-16T07:50:38;3.53;;;2.17;;
51824;SDS011;37879;52.986;6.282;2024-02-16T07:53:04;7.03;;;2.28;;
51824;SDS011;37879;52.986;6.282;2024-02-16T07:55:30;3.90;;;2.35;;
51824;SDS011;37879;52.986;6.282;2024-02-16T07:57:55;4.85;;;1.90;;
51824;SDS011;37879;52.986;6.282;2024-02-16T08:00:21;3.13;;;1.92;;
51824;SDS011;37879;52.986;6.282;2024-02-16T08:02:47;5.75;;;2.55;;
51824;SDS011;37879;52.986;6.282;2024-02-16T08:05:13;5.15;;;2.10;;
51824;SDS011;37879;52.986;6.282;2024-02-16T08:07:39;3.20;;;1.90;;
51824;SDS011;37879;52.986;6.282;2024-02-16T08:10:07;4.80;;;2.22;;
51824;SDS011;37879;52.986;6.282;2024-02-16T08:12:34;5.00;;;2.35;;
51824;SDS011;37879;52.986;6.282;2024-02-16T08:15:04;3.38;;;2.17;;
51824;SDS011;37879;52.986;6.282;2024-02-16T08:17:32;4.65;;;2.80;;
51824;SDS011;37879;52.986;6.282;2024-02-16T08:19:59;4.30;;;2.30;;
51824;SDS011;37879;52.986;6.282;2024-02-16T08:22:25;4.55;;;2.65;;
51824;SDS011;37879;52.986;6.282;2024-02-16T08:24:50;4.63;;;2.30;;
51824;SDS011;37879;52.986;6.282;2024-02-16T08:27:17;4.22;;;2.50;;
51824;SDS011;37879;52.986;6.282;2024-02-16T08:29:43;3.97;;;2.35;;
51824;SDS011;37879;52.986;6.282;2024-02-16T08:32:09;5.78;;;2.95;;
51824;SDS011;37879;52.986;6.282;2024-02-16T08:34:35;4.03;;;2.40;;
51824;SDS011;37879;52.986;6.282;2024-02-16T08:37:02;5.57;;;2.80;;
51824;SDS011;37879;52.986;6.282;2024-02-16T08:39:29;3.15;;;2.22;;
51824;SDS011;37879;52.986;6.282;2024-02-16T08:41:56;6.50;;;2.40;;
51824;SDS011;37879;52.986;6.282;2024-02-16T08:44:22;7.72;;;2.83;;
51824;SDS011;37879;52.986;6.282;2024-02-16T08:46:48;3.10;;;2.08;;
51824;SDS011;37879;52.986;6.282;2024-02-16T08:49:15;4.10;;;2.40;;
51824;SDS011;37879;52.986;6.282;2024-02-16T08:51:41;5.05;;;2.20;;
51824;SDS011;37879;52.986;6.282;2024-02-16T08:54:10;6.15;;;2.97;;
51824;SDS011;37879;52.986;6.282;2024-02-16T08:56:35;7.35;;;2.53;;
51824;SDS011;37879;52.986;6.282;2024-02-16T08:59:04;5.25;;;2.85;;
51824;SDS011;37879;52.986;6.282;2024-02-16T09:01:33;5.22;;;2.65;;
51824;SDS011;37879;52.986;6.282;2024-02-16T09:04:00;4.47;;;2.75;;
51824;SDS011;37879;52.986;6.282;2024-02-16T09:06:26;3.70;;;2.30;;
51824;SDS011;37879;52.986;6.282;2024-02-16T09:08:53;3.60;;;2.45;;
51824;SDS011;37879;52.986;6.282;2024-02-16T09:11:19;5.32;;;2.60;;
51824;SDS011;37879;52.986;6.282;2024-02-16T09:13:45;4.97;;;3.00;;
51824;SDS011;37879;52.986;6.282;2024-02-16T09:16:10;4.38;;;2.40;;
51824;SDS011;37879;52.986;6.282;2024-02-16T09:18:36;6.25;;;3.65;;
51824;SDS011;37879;52.986;6.282;2024-02-16T09:21:03;4.57;;;3.17;;
51824;SDS011;37879;52.986;6.282;2024-02-16T09:23:29;4.50;;;2.75;;
51824;SDS011;37879;52.986;6.282;2024-02-16T09:25:55;5.43;;;2.80;;
51824;SDS011;37879;52.986;6.282;2024-02-16T09:28:21;3.33;;;2.30;;
51824;SDS011;37879;52.986;6.282;2024-02-16T09:30:47;6.05;;;2.92;;
51824;SDS011;37879;52.986;6.282;2024-02-16T09:33:12;5.95;;;3.30;;
51824;SDS011;37879;52.986;6.282;2024-02-16T09:35:39;5.13;;;3.08;;
51824;SDS011;37879;52.986;6.282;2024-02-16T09:38:05;6.00;;;2.72;;
51824;SDS011;37879;52.986;6.282;2024-02-16T09:40:31;5.18;;;3.28;;
51824;SDS011;37879;52.986;6.282;2024-02-16T09:42:57;5.57;;;3.28;;
51824;SDS011;37879;52.986;6.282;2024-02-16T09:45:23;5.18;;;2.63;;
51824;SDS011;37879;52.986;6.282;2024-02-16T09:47:51;5.07;;;3.15;;
51824;SDS011;37879;52.986;6.282;2024-02-16T09:50:20;4.38;;;2.85;;
51824;SDS011;37879;52.986;6.282;2024-02-16T09:52:46;5.97;;;3.10;;
51824;SDS011;37879;52.986;6.282;2024-02-16T09:55:13;4.95;;;3.40;;
51824;SDS011;37879;52.986;6.282;2024-02-16T09:57:40;6.38;;;3.28;;
51824;SDS011;37879;52.986;6.282;2024-02-16T10:00:06;5.70;;;2.72;;
51824;SDS011;37879;52.986;6.282;2024-02-16T10:02:45;3.97;;;2.80;;
51824;SDS011;37879;52.986;6.282;2024-02-16T10:05:12;4.85;;;3.45;;
51824;SDS011;37879;52.986;6.282;2024-02-16T10:07:38;4.72;;;3.03;;
51824;SDS011;37879;52.986;6.282;2024-02-16T10:10:05;7.65;;;3.42;;
51824;SDS011;37879;52.986;6.282;2024-02-16T10:12:31;6.35;;;3.88;;
51824;SDS011;37879;52.986;6.282;2024-02-16T10:14:57;6.13;;;3.70;;
51824;SDS011;37879;52.986;6.282;2024-02-16T10:17:24;8.60;;;4.78;;
51824;SDS011;37879;52.986;6.282;2024-02-16T10:19:57;7.78;;;3.95;;
51824;SDS011;37879;52.986;6.282;2024-02-16T10:22:24;6.05;;;3.45;;
51824;SDS011;37879;52.986;6.282;2024-02-16T10:24:50;5.15;;;3.15;;
51824;SDS011;37879;52.986;6.282;2024-02-16T10:27:16;6.65;;;4.22;;
51824;SDS011;37879;52.986;6.282;2024-02-16T10:29:46;8.13;;;4.25;;
51824;SDS011;37879;52.986;6.282;2024-02-16T10:32:16;5.03;;;3.38;;
51824;SDS011;37879;52.986;6.282;2024-02-16T10:34:43;7.75;;;4.95;;
51824;SDS011;37879;52.986;6.282;2024-02-16T10:37:11;10.07;;;5.57;;
51824;SDS011;37879;52.986;6.282;2024-02-16T10:39:38;7.22;;;4.38;;
51824;SDS011;37879;52.986;6.282;2024-02-16T10:42:06;7.15;;;4.43;;
51824;SDS011;37879;52.986;6.282;2024-02-16T10:44:34;7.90;;;4.95;;
51824;SDS011;37879;52.986;6.282;2024-02-16T10:47:01;7.28;;;4.90;;
51824;SDS011;37879;52.986;6.282;2024-02-16T10:49:26;6.25;;;4.20;;
51824;SDS011;37879;52.986;6.282;2024-02-16T10:51:53;8.85;;;4.65;;
51824;SDS011;37879;52.986;6.282;2024-02-16T10:54:22;9.30;;;5.13;;
51824;SDS011;37879;52.986;6.282;2024-02-16T10:56:55;8.32;;;5.15;;
51824;SDS011;37879;52.986;6.282;2024-02-16T10:59:21;11.13;;;6.20;;
51824;SDS011;37879;52.986;6.282;2024-02-16T11:01:46;9.45;;;5.38;;
51824;SDS011;37879;52.986;6.282;2024-02-16T11:04:17;8.63;;;5.78;;
51824;SDS011;37879;52.986;6.282;2024-02-16T11:09:22;15.82;;;7.10;;
51824;SDS011;37879;52.986;6.282;2024-02-16T11:11:52;11.40;;;6.82;;
51824;SDS011;37879;52.986;6.282;2024-02-16T11:14:18;13.93;;;6.95;;
51824;SDS011;37879;52.986;6.282;2024-02-16T11:16:47;12.85;;;7.43;;
51824;SDS011;37879;52.986;6.282;2024-02-16T11:19:13;15.73;;;7.72;;
51824;SDS011;37879;52.986;6.282;2024-02-16T11:21:54;10.65;;;6.50;;
51824;SDS011;37879;52.986;6.282;2024-02-16T11:24:34;13.35;;;7.53;;
51824;SDS011;37879;52.986;6.282;2024-02-16T11:27:01;12.30;;;5.90;;
51824;SDS011;37879;52.986;6.282;2024-02-16T11:29:32;13.07;;;6.50;;
51824;SDS011;37879;52.986;6.282;2024-02-16T11:31:59;12.98;;;6.78;;
51824;SDS011;37879;52.986;6.282;2024-02-16T11:34:26;10.35;;;5.50;;
51824;SDS011;37879;52.986;6.282;2024-02-16T11:36:53;8.38;;;4.82;;
51824;SDS011;37879;52.986;6.282;2024-02-16T11:39:19;8.07;;;4.43;;
51824;SDS011;37879;52.986;6.282;2024-02-16T11:41:46;7.95;;;4.30;;
51824;SDS011;37879;52.986;6.282;2024-02-16T11:44:14;7.13;;;4.43;;
51824;SDS011;37879;52.986;6.282;2024-02-16T11:46:43;8.15;;;4.55;;
51824;SDS011;37879;52.986;6.282;2024-02-16T11:49:09;6.72;;;4.13;;
51824;SDS011;37879;52.986;6.282;2024-02-16T11:51:37;7.47;;;3.72;;
51824;SDS011;37879;52.986;6.282;2024-02-16T11:54:04;6.45;;;3.78;;
51824;SDS011;37879;52.986;6.282;2024-02-16T11:56:31;9.38;;;4.30;;
51824;SDS011;37879;52.986;6.282;2024-02-16T11:58:57;8.88;;;4.20;;
51824;SDS011;37879;52.986;6.282;2024-02-16T12:01:22;7.25;;;4.05;;
51824;SDS011;37879;52.986;6.282;2024-02-16T12:03:48;8.20;;;3.60;;
51824;SDS011;37879;52.986;6.282;2024-02-16T12:06:20;7.53;;;4.03;;
51824;SDS011;37879;52.986;6.282;2024-02-16T12:08:46;8.95;;;4.25;;
51824;SDS011;37879;52.986;6.282;2024-02-16T12:11:12;5.35;;;3.03;;
51824;SDS011;37879;52.986;6.282;2024-02-16T12:13:39;7.28;;;3.95;;
51824;SDS011;37879;52.986;6.282;2024-02-16T12:16:05;5.38;;;3.63;;
51824;SDS011;37879;52.986;6.282;2024-02-16T12:18:32;5.35;;;3.08;;
51824;SDS011;37879;52.986;6.282;2024-02-16T12:21:01;6.70;;;3.40;;
51824;SDS011;37879;52.986;6.282;2024-02-16T12:23:29;6.70;;;3.78;;
51824;SDS011;37879;52.986;6.282;2024-02-16T12:25:58;7.10;;;3.88;;
51824;SDS011;37879;52.986;6.282;2024-02-16T12:28:24;5.55;;;3.15;;
51824;SDS011;37879;52.986;6.282;2024-02-16T12:30:53;5.90;;;3.33;;
51824;SDS011;37879;52.986;6.282;2024-02-16T12:33:19;6.10;;;3.55;;
51824;SDS011;37879;52.986;6.282;2024-02-16T12:35:46;6.85;;;3.38;;
51824;SDS011;37879;52.986;6.282;2024-02-16T12:38:11;5.20;;;3.25;;
51824;SDS011;37879;52.986;6.282;2024-02-16T12:40:37;5.88;;;3.00;;
51824;SDS011;37879;52.986;6.282;2024-02-16T12:43:03;6.25;;;3.08;;
51824;SDS011;37879;52.986;6.282;2024-02-16T12:45:29;6.97;;;3.63;;
51824;SDS011;37879;52.986;6.282;2024-02-16T12:47:56;5.90;;;3.30;;
51824;SDS011;37879;52.986;6.282;2024-02-16T12:50:22;4.43;;;3.05;;
51824;SDS011;37879;52.986;6.282;2024-02-16T12:52:48;4.97;;;2.55;;
51824;SDS011;37879;52.986;6.282;2024-02-16T12:55:13;4.53;;;2.47;;
51824;SDS011;37879;52.986;6.282;2024-02-16T12:57:41;4.30;;;2.50;;
51824;SDS011;37879;52.986;6.282;2024-02-16T13:00:06;4.00;;;2.13;;
51824;SDS011;37879;52.986;6.282;2024-02-16T13:02:32;2.85;;;1.90;;
51824;SDS011;37879;52.986;6.282;2024-02-16T13:04:59;2.35;;;1.52;;
51824;SDS011;37879;52.986;6.282;2024-02-16T13:07:24;3.17;;;1.80;;
51824;SDS011;37879;52.986;6.282;2024-02-16T13:09:50;2.22;;;1.33;;
51824;SDS011;37879;52.986;6.282;2024-02-16T13:12:16;1.67;;;1.27;;
51824;SDS011;37879;52.986;6.282;2024-02-16T13:14:44;2.20;;;1.50;;
51824;SDS011;37879;52.986;6.282;2024-02-16T13:17:10;2.03;;;1.23;;
51824;SDS011;37879;52.986;6.282;2024-02-16T13:19:36;1.30;;;0.93;;
51824;SDS011;37879;52.986;6.282;2024-02-16T13:22:01;1.65;;;1.00;;
51824;SDS011;37879;52.986;6.282;2024-02-16T13:24:27;1.45;;;0.65;;
51824;SDS011;37879;52.986;6.282;2024-02-16T13:26:53;1.90;;;0.90;;
51824;SDS011;37879;52.986;6.282;2024-02-16T13:29:18;1.55;;;1.05;;
51824;SDS011;37879;52.986;6.282;2024-02-16T13:31:44;1.42;;;0.80;;
51824;SDS011;37879;52.986;6.282;2024-02-16T13:34:10;1.20;;;0.73;;
51824;SDS011;37879;52.986;6.282;2024-02-16T13:36:36;1.30;;;0.82;;
51824;SDS011;37879;52.986;6.282;2024-02-16T13:39:02;2.60;;;0.93;;
51824;SDS011;37879;52.986;6.282;2024-02-16T13:41:27;1.67;;;0.88;;
51824;SDS011;37879;52.986;6.282;2024-02-16T13:43:53;2.25;;;0.82;;
51824;SDS011;37879;52.986;6.282;2024-02-16T13:46:19;1.73;;;0.82;;
51824;SDS011;37879;52.986;6.282;2024-02-16T13:48:44;2.60;;;0.90;;
51824;SDS011;37879;52.986;6.282;2024-02-16T13:51:10;1.67;;;0.88;;
51824;SDS011;37879;52.986;6.282;2024-02-16T13:53:36;1.73;;;1.00;;
51824;SDS011;37879;52.986;6.282;2024-02-16T13:56:02;1.92;;;1.00;;
51824;SDS011;37879;52.986;6.282;2024-02-16T13:58:29;1.30;;;0.80;;
51824;SDS011;37879;52.986;6.282;2024-02-16T14:00:55;1.80;;;1.05;;
51824;SDS011;37879;52.986;6.282;2024-02-16T14:03:21;2.60;;;1.45;;
51824;SDS011;37879;52.986;6.282;2024-02-16T14:05:47;3.65;;;1.50;;
51824;SDS011;37879;52.986;6.282;2024-02-16T14:08:13;3.10;;;1.60;;
51824;SDS011;37879;52.986;6.282;2024-02-16T14:10:41;2.78;;;1.63;;
51824;SDS011;37879;52.986;6.282;2024-02-16T14:13:06;3.85;;;2.00;;
51824;SDS011;37879;52.986;6.282;2024-02-16T14:15:32;4.70;;;2.13;;
51824;SDS011;37879;52.986;6.282;2024-02-16T14:17:58;3.72;;;1.80;;
51824;SDS011;37879;52.986;6.282;2024-02-16T14:20:23;4.13;;;1.83;;
51824;SDS011;37879;52.986;6.282;2024-02-16T14:22:50;3.90;;;1.90;;
51824;SDS011;37879;52.986;6.282;2024-02-16T14:25:16;2.88;;;1.63;;
51824;SDS011;37879;52.986;6.282;2024-02-16T14:27:43;3.50;;;2.08;;
51824;SDS011;37879;52.986;6.282;2024-02-16T14:30:10;8.93;;;3.15;;
51824;SDS011;37879;52.986;6.282;2024-02-16T14:32:37;4.00;;;1.80;;
51824;SDS011;37879;52.986;6.282;2024-02-16T14:35:02;5.93;;;2.00;;
51824;SDS011;37879;52.986;6.282;2024-02-16T14:37:30;5.03;;;2.50;;
51824;SDS011;37879;52.986;6.282;2024-02-16T14:39:56;4.65;;;2.53;;
51824;SDS011;37879;52.986;6.282;2024-02-16T14:42:23;4.95;;;2.42;;
51824;SDS011;37879;52.986;6.282;2024-02-16T14:44:49;3.97;;;2.58;;
51824;SDS011;37879;52.986;6.282;2024-02-16T14:47:15;5.30;;;2.33;;